Latest Weather Observations for Low Rocky Point

IDT60801

Issued at 9:31 pm EST Wednesday 1 July 2015 (issued every 30 minutes, with the page automatically refreshed every 10 minutes)

About weather observations | Map of weather stations | Latest weather observations for TAS | Other Formats
Station Details ID: 097080 Name: LOW ROCKY POINT Lat: -42.98 Lon: 145.50 Height: 34.0 m
Data from the previous 72 hours. | See also: Recent months at Low Rocky Point
Date/Time
EST
Temp
°C
App
Temp
°C
Dew
Point
Rel
Hum
%
Delta-T
°C
Wind Press
QNH
hPa
Press
MSL
hPa
Rain
since 9 am
mm
Dir
 
Spd
km/h
Gust
km/h
Spd
kts
Gust
kts
01/09:30pm 10.5 -0.9 6.6 77 1.8 W 56 69 30 37 1006.3 1006.4 10.2
01/09:01pm 10.2 -3.0 6.5 78 1.7 WNW 65 83 35 45 1006.3 1006.4 10.2
01/09:00pm 10.3 -2.5 6.6 78 1.7 WNW 63 80 34 43 1006.4 1006.5 10.2
01/08:30pm 10.3 -0.9 8.4 88 0.9 WNW 57 72 31 39 1006.2 1006.3 10.2
01/08:11pm 10.3 -0.7 8.4 88 0.9 WNW 56 78 30 42 1006.2 1006.3 10.2
01/08:00pm 10.3 -1.2 8.6 89 0.8 WNW 59 72 32 39 1006.2 1006.3 10.2
01/07:48pm 9.9 -1.1 8.3 90 0.8 WNW 56 74 30 40 1006.2 1006.3 10.2
01/07:30pm 9.2 -1.1 8.3 94 0.4 NW 52 63 28 34 1006.4 1006.5 10.2
01/07:00pm 8.2 -1.5 7.6 96 0.3 WNW 48 59 26 32 1006.7 1006.8 10.2
01/06:38pm 8.1 -1.2 7.7 97 0.2 W 46 65 25 35 1007.0 1007.1 10.0
01/06:30pm 8.1 -2.7 7.7 97 0.2 W 54 65 29 35 1007.5 1007.6 9.8
01/06:00pm 8.1 -1.2 7.5 96 0.3 WNW 46 61 25 33 1007.0 1007.1 6.8
01/05:41pm 6.4 -5.6 5.0 91 0.6 W 57 106 31 57 1007.1 1007.2 5.6
01/05:35pm 8.0 -6.5 6.3 89 0.8 NW 72 106 39 57 1007.2 1007.3 3.0
01/05:30pm 11.5 -2.8 10.2 92 0.7 NW 76 96 41 52 1005.1 1005.2 2.6
01/05:00pm 12.1 -0.1 10.5 90 0.8 NNW 65 85 35 46 1005.5 1005.6 2.0
01/04:30pm 11.7 -1.0 10.1 90 0.8 NNW 67 87 36 47 1006.7 1006.8 2.0
01/04:00pm 11.6 -2.7 10.3 92 0.7 NW 76 95 41 51 1007.7 1007.8 2.0
01/03:30pm 10.8 -2.5 9.7 93 0.6 NW 70 98 38 53 1008.5 1008.6 2.0
01/03:00pm 10.8 -3.4 9.2 90 0.8 NW 74 100 40 54 1008.8 1008.9 1.0
01/02:30pm 12.0 -1.8 9.2 83 1.4 NW 72 91 39 49 1009.3 1009.4 0.0
01/02:00pm 12.5 -0.7 10.2 86 1.2 NW 70 89 38 48 1010.0 1010.1 0.0
01/01:31pm 12.4 -0.3 9.8 84 1.3 NW 67 85 36 46 1010.7 1010.8 0.0
01/01:30pm 12.5 0.2 9.9 84 1.3 NW 65 82 35 44 1010.8 1010.9 0.0
01/01:03pm 12.8 1.0 10.3 85 1.3 NW 63 82 34 44 1011.6 1011.7 0.0
01/01:00pm 12.5 1.0 10.0 85 1.3 NW 61 74 33 40 1011.8 1011.9 0.0
01/12:32pm 12.4 0.0 9.6 83 1.4 NW 65 83 35 45 1012.5 1012.6 0.0
01/12:30pm 12.3 -0.5 9.5 83 1.4 NW 67 83 36 45 1012.5 1012.6 0.0
01/12:09pm 12.5 -0.1 10.2 86 1.2 NW 67 85 36 46 1013.0 1013.1 0.0
01/12:00pm 12.5 0.0 10.6 88 1.0 NW 67 80 36 43 1013.3 1013.4 0.0
01/11:32am 12.1 1.9 10.2 88 1.0 NNW 54 72 29 39 1014.0 1014.1 0.0
01/11:30am 12.3 1.8 10.4 88 1.0 NNW 56 70 30 38 1014.1 1014.2 0.0
01/11:00am 11.9 1.0 9.6 86 1.2 NNW 57 76 31 41 1015.2 1015.3 0.0
01/10:45am 11.9 2.1 10.0 88 1.0 NNW 52 70 28 38 1015.8 1015.8 0.0
01/10:30am 12.0 0.8 9.9 87 1.1 NW 59 72 32 39 1016.1 1016.1 0.0
01/10:00am 11.6 0.7 9.7 88 1.0 NW 57 76 31 41 1016.5 1016.6 0.0
01/09:49am 11.2 0.4 9.1 87 1.0 NW 56 74 30 40 1016.8 1016.8 0.0
01/09:30am 11.8 0.5 9.5 86 1.2 NW 59 72 32 39 1016.9 1016.9 0.0
01/09:00am 12.0 1.3 9.6 85 1.2 NW 56 69 30 37 1017.3 1017.4 2.6
01/08:30am 11.9 1.9 9.5 85 1.2 NW 52 67 28 36 1017.8 1017.8 2.6
01/08:00am 11.7 1.6 9.1 84 1.3 NW 52 65 28 35 1018.2 1018.3 2.6
01/07:30am 11.5 1.4 9.1 85 1.2 NW 52 65 28 35 1018.5 1018.5 2.6
01/07:00am 11.6 2.8 9.5 87 1.1 NW 46 57 25 31 1018.9 1019.0 2.6
01/06:30am 11.1 1.4 9.2 88 0.9 NW 50 61 27 33 1018.9 1018.9 2.6
01/06:00am 11.3 3.0 10.0 92 0.7 NW 44 59 24 32 1019.2 1019.2 2.6
01/05:30am 11.0 1.9 9.9 93 0.6 NW 48 61 26 33 1019.5 1019.5 2.6
01/05:00am 10.8 2.5 10.2 96 0.3 NW 44 56 24 30 1019.9 1020.0 2.6
01/04:30am 10.6 1.9 10.1 97 0.3 NW 46 57 25 31 1020.2 1020.2 2.4
01/04:05am 10.5 1.8 9.9 96 0.3 NW 46 69 25 37 1020.4 1020.4 2.4
01/04:00am 10.5 1.8 10.0 97 0.3 NW 46 57 25 31 1020.4 1020.5 2.4
01/03:44am 10.7 2.4 10.2 97 0.3 NW 44 67 24 36 1020.5 1020.5 2.4
01/03:30am 10.8 2.8 10.5 98 0.2 NW 43 54 23 29 1020.8 1020.8 2.4
01/03:00am 10.4 3.1 10.1 98 0.2 NW 39 50 21 27 1021.2 1021.3 2.2
01/02:30am 10.3 2.9 10.0 98 0.2 NW 39 46 21 25 1021.4 1021.4 2.2
01/02:00am 10.6 4.0 10.1 97 0.3 NW 35 48 19 26 1021.6 1021.7 1.8
01/01:30am 10.6 3.6 10.0 96 0.3 NW 37 46 20 25 1021.5 1021.5 1.6
01/01:00am 10.7 3.3 9.9 95 0.4 NW 39 50 21 27 1021.8 1021.9 1.4
01/12:30am 11.0 3.7 10.2 95 0.4 NW 39 48 21 26 1022.1 1022.1 1.4
01/12:00am 11.2 4.3 10.3 94 0.5 NW 37 48 20 26 1022.3 1022.3 1.4
 
Date/Time
EST
Temp
°C
App
Temp
°C
Dew
Point
Rel
Hum
%
Delta-T
°C
Wind Press
QNH
hPa
Press
MSL
hPa
Rain
since 9 am
mm
Dir
 
Spd
km/h
Gust
km/h
Spd
kts
Gust
kts
30/11:30pm 10.5 2.7 9.6 94 0.5 NW 41 52 22 28 1022.5 1022.5 1.4
30/11:00pm 10.9 3.9 10.0 94 0.5 NW 37 50 20 27 1022.7 1022.8 1.4
30/10:30pm 11.0 4.4 10.1 94 0.5 NW 35 43 19 23 1022.9 1022.9 1.4
30/10:00pm 10.9 4.9 10.1 95 0.4 NW 32 37 17 20 1023.3 1023.4 1.4
30/09:30pm 10.8 4.6 9.9 94 0.5 NW 33 41 18 22 1023.4 1023.4 1.4
30/09:00pm 10.8 4.7 9.9 94 0.5 NW 32 41 17 22 1023.4 1023.5 1.4
30/08:30pm 10.7 4.6 9.9 95 0.4 NW 32 41 17 22 1023.7 1023.7 1.4
30/08:00pm 10.7 4.6 9.9 95 0.4 NW 32 41 17 22 1023.7 1023.8 1.4
30/07:30pm 10.5 4.3 9.4 93 0.5 NW 32 44 17 24 1023.7 1023.7 0.6
30/07:00pm 11.0 6.0 9.6 91 0.7 NW 26 39 14 21 1023.6 1023.7 0.2
30/06:30pm 10.5 3.7 9.3 92 0.6 NW 35 43 19 23 1023.6 1023.6 0.2
30/06:00pm 10.5 6.2 9.4 93 0.5 NW 22 33 12 18 1023.7 1023.8 0.2
30/05:30pm 10.7 5.7 9.5 92 0.6 W 26 33 14 18 1023.8 1023.8 0.2
30/05:00pm 10.4 4.4 8.8 90 0.8 NW 30 37 16 20 1023.7 1023.8 0.2
30/04:30pm 11.4 5.6 9.3 87 1.1 NW 30 37 16 20 1023.6 1023.6 0.0
30/04:00pm 11.3 6.5 8.9 85 1.2 NNW 24 33 13 18 1023.6 1023.7 0.0
30/03:30pm 11.6 5.6 8.8 83 1.4 NW 30 35 16 19 1023.7 1023.7 0.0
30/03:00pm 11.6 6.0 8.8 83 1.4 NW 28 35 15 19 1023.6 1023.7 0.0
30/02:30pm 11.8 5.6 9.2 84 1.3 NW 32 39 17 21 1023.8 1023.8 0.0
30/02:00pm 12.4 6.8 10.1 86 1.2 NW 30 39 16 21 1023.9 1024.0 0.0
30/01:30pm 11.6 6.3 9.7 88 1.0 NW 28 33 15 18 1024.1 1024.1 0.0
30/01:00pm 11.6 5.9 9.7 88 1.0 NW 30 37 16 20 1024.5 1024.6 0.0
30/12:30pm 10.7 4.4 9.0 89 0.8 WNW 32 37 17 20 1024.6 1024.7 0.0
30/12:00pm 10.9 4.7 9.2 89 0.8 NW 32 39 17 21 1024.9 1025.0 0.0
30/11:30am 10.5 4.8 8.4 87 1.0 NW 28 39 15 21 1025.3 1025.4 0.0
30/11:00am 11.5 5.6 9.1 85 1.2 NW 30 35 16 19 1025.5 1025.6 0.0
30/10:30am 11.4 5.1 8.8 84 1.3 NW 32 37 17 20 1025.5 1025.6 0.0
30/10:00am 11.6 6.6 9.7 88 1.0 NW 26 33 14 18 1025.6 1025.7 0.0
30/09:30am 10.9 5.8 9.2 89 0.8 NW 26 33 14 18 1025.7 1025.8 0.0
30/09:00am 11.0 5.8 8.9 87 1.0 NW 26 32 14 17 1025.6 1025.7 1.8
30/08:30am 10.5 5.7 8.8 89 0.8 NW 24 35 13 19 1025.5 1025.6 1.8
30/08:00am 10.6 4.3 9.0 90 0.8 WNW 32 37 17 20 1025.5 1025.6 1.8
30/07:30am 10.6 4.9 9.7 94 0.5 WNW 30 35 16 19 1025.4 1025.5 1.6
30/07:00am 10.3 5.0 9.7 96 0.3 WNW 28 35 15 19 1025.3 1025.4 1.6
30/06:30am 9.9 4.1 9.4 97 0.2 WNW 30 41 16 22 1025.1 1025.2 1.6
30/06:00am 10.2 3.1 9.7 97 0.2 WNW 37 44 20 24 1025.0 1025.1 1.6
30/05:30am 10.4 4.1 9.6 95 0.4 NW 33 43 18 23 1025.0 1025.1 1.6
30/05:00am 10.7 4.7 10.1 96 0.3 WNW 32 39 17 21 1024.8 1024.9 1.6
30/04:30am 10.5 4.4 9.6 94 0.5 NW 32 39 17 21 1024.9 1025.0 1.6
30/04:00am 10.8 4.1 9.7 93 0.6 WNW 35 43 19 23 1024.9 1025.0 1.6
30/03:30am 10.8 4.5 9.7 93 0.6 NW 33 41 18 22 1024.9 1025.0 1.6
30/03:00am 10.6 3.6 9.8 95 0.4 NW 37 46 20 25 1025.1 1025.2 1.4
30/02:30am 10.3 4.0 9.8 97 0.3 WNW 33 43 18 23 1025.2 1025.3 1.4
30/02:00am 9.9 4.2 9.8 99 0.0 NW 30 37 16 20 1025.4 1025.5 1.4
30/01:30am 10.0 3.8 9.9 99 0.1 NW 33 43 18 23 1025.6 1025.7 1.4
30/01:00am 9.9 2.8 9.6 98 0.1 WNW 37 46 20 25 1025.7 1025.8 1.4
30/12:30am 10.4 3.8 10.1 98 0.2 WNW 35 43 19 23 1025.8 1025.9 1.4
30/12:00am 10.1 3.1 9.8 98 0.1 WNW 37 46 20 25 1026.0 1026.1 1.4
 
Date/Time
EST
Temp
°C
App
Temp
°C
Dew
Point
Rel
Hum
%
Delta-T
°C
Wind Press
QNH
hPa
Press
MSL
hPa
Rain
since 9 am
mm
Dir
 
Spd
km/h
Gust
km/h
Spd
kts
Gust
kts
29/11:30pm 10.8 3.9 10.3 97 0.3 WNW 37 44 20 24 1025.9 1026.0 1.4
29/11:00pm 10.9 4.0 10.4 97 0.3 NW 37 44 20 24 1025.9 1026.0 1.2
29/10:30pm 10.5 4.0 10.2 98 0.2 NW 35 48 19 26 1026.0 1026.1 1.2
29/10:00pm 10.4 3.9 10.2 99 0.1 WNW 35 41 19 22 1026.2 1026.3 1.2
29/09:30pm 10.5 4.0 10.2 98 0.2 NW 35 44 19 24 1026.3 1026.4 1.2
29/09:00pm 10.6 3.6 10.1 97 0.3 NW 37 46 20 25 1026.4 1026.5 1.2
29/08:30pm 10.9 4.3 10.1 95 0.4 NW 35 46 19 25 1026.4 1026.5 1.0
29/08:00pm 10.5 3.5 9.9 96 0.3 NW 37 44 20 24 1026.4 1026.5 1.0
29/07:30pm 10.5 3.1 10.0 97 0.3 WNW 39 48 21 26 1026.4 1026.5 1.0
29/07:00pm 10.6 4.0 10.1 97 0.3 NW 35 48 19 26 1026.4 1026.5 1.0
29/06:30pm 11.1 4.5 10.0 93 0.6 NW 35 44 19 24 1026.3 1026.4 0.8
29/06:00pm 11.6 5.4 10.0 90 0.8 NW 33 43 18 23 1026.2 1026.3 0.8
29/05:30pm 11.4 4.4 10.1 92 0.7 NW 37 48 20 26 1026.3 1026.4 0.8
29/05:00pm 11.2 4.3 10.3 94 0.5 WNW 37 48 20 26 1026.2 1026.3 0.8
29/04:30pm 11.0 3.8 10.4 96 0.3 NW 39 50 21 27 1026.2 1026.3 0.8
29/04:00pm 10.9 3.3 10.6 98 0.2 WNW 41 50 22 27 1026.3 1026.4 0.8
29/03:30pm 11.1 3.9 10.6 97 0.3 NW 39 48 21 26 1026.3 1026.4 0.6
29/03:00pm 11.7 5.1 11.2 97 0.3 NW 37 48 20 26 1026.2 1026.3 0.6
29/02:48pm 11.3 3.8 10.8 97 0.3 NW 41 59 22 32 1026.2 1026.3 0.6
29/02:30pm 11.2 3.3 10.9 98 0.2 NW 43 54 23 29 1026.2 1026.3 0.6
29/02:00pm 11.1 3.1 10.6 97 0.3 WNW 43 54 23 29 1026.3 1026.4 0.6
29/01:30pm 11.9 4.6 11.4 97 0.3 NW 41 50 22 27 1026.5 1026.6 0.6
29/01:00pm 11.8 4.4 11.3 97 0.3 NW 41 50 22 27 1026.6 1026.7 0.6
29/12:30pm 11.0 3.5 10.7 98 0.2 NW 41 50 22 27 1026.8 1026.9 0.6
29/12:00pm 11.1 4.3 10.5 96 0.3 NW 37 46 20 25 1027.1 1027.2 0.4
29/11:30am 11.5 4.0 10.7 95 0.4 NW 41 52 22 28 1027.4 1027.5 0.4
29/11:00am 10.9 3.6 10.3 96 0.3 NW 39 52 21 28 1027.8 1027.9 0.4
29/10:30am 10.9 3.5 9.8 93 0.6 NW 39 48 21 26 1028.0 1028.1 0.0
29/10:00am 11.5 4.1 9.9 90 0.8 NW 39 48 21 26 1027.8 1027.9 0.0
29/09:30am 11.2 3.4 9.6 90 0.8 NW 41 54 22 29 1027.7 1027.8 0.0
29/09:00am 11.6 3.9 10.0 90 0.8 NW 41 54 22 29 1027.4 1027.5 1.0
29/08:30am 11.0 4.0 9.9 93 0.6 NW 37 48 20 26 1027.4 1027.5 1.0
29/08:00am 10.9 3.1 9.8 93 0.6 WNW 41 54 22 29 1027.3 1027.4 1.0
29/07:30am 10.5 3.0 9.3 92 0.6 WNW 39 50 21 27 1027.1 1027.2 1.0
29/07:00am 11.0 2.7 9.4 90 0.8 WNW 43 50 23 27 1026.9 1027.0 1.0
29/06:46am 11.4 4.4 9.8 90 0.8 NW 37 56 20 30 1026.7 1026.8 1.0
29/06:30am 10.9 3.0 9.3 90 0.8 WNW 41 48 22 26 1026.8 1026.9 1.0
29/06:00am 11.2 3.8 9.9 92 0.7 WNW 39 46 21 25 1026.6 1026.7 0.8
29/05:30am 11.1 3.7 10.0 93 0.6 WNW 39 48 21 26 1026.4 1026.5 0.8
29/05:00am 10.4 2.1 9.5 94 0.4 WNW 43 54 23 29 1026.5 1026.6 0.8
29/04:33am 11.0 3.2 9.9 93 0.6 WNW 41 59 22 32 1026.4 1026.5 0.8
29/04:30am 11.0 3.7 10.1 94 0.5 WNW 39 48 21 26 1026.5 1026.6 0.8
29/04:00am 11.1 3.2 9.5 90 0.8 WNW 41 50 22 27 1026.5 1026.6 0.8
29/03:30am 11.1 3.0 10.0 93 0.6 WNW 43 54 23 29 1026.4 1026.5 0.8
29/03:00am 10.5 1.7 9.4 93 0.5 WNW 46 57 25 31 1026.5 1026.6 0.8
29/02:30am 11.3 3.2 10.0 92 0.7 WNW 43 50 23 27 1026.4 1026.5 0.8
29/02:00am 11.2 3.1 9.9 92 0.7 WNW 43 54 23 29 1026.3 1026.4 0.8
29/01:30am 11.2 3.2 10.4 95 0.4 WNW 43 52 23 28 1026.5 1026.6 0.8
29/01:05am 10.7 1.6 9.9 95 0.4 WNW 48 67 26 36 1026.5 1026.6 0.8
29/01:00am 10.3 0.7 9.4 94 0.4 WNW 50 67 27 36 1026.5 1026.6 0.8
29/12:56am 11.0 2.9 10.1 94 0.5 WNW 43 67 23 36 1026.4 1026.5 0.8
29/12:30am 11.4 3.3 10.6 95 0.4 WNW 44 56 24 30 1026.6 1026.7 0.8
29/12:00am 11.2 2.6 10.4 95 0.4 WNW 46 61 25 33 1026.5 1026.6 0.8
 
Date/Time
EST
Temp
°C
App
Temp
°C
Dew
Point
Rel
Hum
%
Delta-T
°C
Wind Press
QNH
hPa
Press
MSL
hPa
Rain
since 9 am
mm
Dir
 
Spd
km/h
Gust
km/h
Spd
kts
Gust
kts
28/11:30pm 10.5 1.8 9.9 96 0.3 WNW 46 56 25 30 1026.8 1026.9 0.8
28/11:19pm 10.7 2.0 9.9 95 0.4 WNW 46 65 25 35 1026.7 1026.8 0.6
28/11:00pm 11.2 2.6 10.4 95 0.4 WNW 46 61 25 33 1026.7 1026.8 0.6
28/10:43pm 10.8 2.2 10.2 96 0.3 WNW 46 67 25 36 1026.6 1026.7 0.6
28/10:30pm 11.1 2.6 10.6 97 0.3 WNW 46 61 25 33 1026.6 1026.7 0.6
28/10:00pm 10.7 1.7 10.2 97 0.3 WNW 48 61 26 33 1026.6 1026.7 0.4

Other Formats:

Comma delimited format used in spreadsheet applications
http://www.bom.gov.au/fwo/IDT60801/IDT60801.95961.axf

JavaScript Object Notation format (JSON) in row-major order
http://www.bom.gov.au/fwo/IDT60801/IDT60801.95961.json